createdAt,value
2018-02-09T00:00:03.449Z,134.50
2018-02-09T00:01:03.377Z,133.90
2018-02-09T00:02:03.307Z,139.60
2018-02-09T00:03:03.239Z,139.50
2018-02-09T00:04:03.169Z,142.10
2018-02-09T00:05:03.101Z,139.10
2018-02-09T00:06:03.031Z,139.20
2018-02-09T00:07:02.961Z,134.90
2018-02-09T00:08:02.892Z,132.70
2018-02-09T00:09:02.824Z,130.60
2018-02-09T00:10:02.758Z,131.20
2018-02-09T00:11:02.684Z,128.00
2018-02-09T00:12:02.615Z,134.50
2018-02-09T00:13:02.545Z,137.00
2018-02-09T00:14:02.477Z,136.70
2018-02-09T00:15:02.407Z,130.70
2018-02-09T00:16:02.338Z,134.80
2018-02-09T00:17:02.269Z,138.00
2018-02-09T00:18:02.206Z,136.90
2018-02-09T00:19:02.334Z,137.40
2018-02-09T00:20:02.061Z,131.50
2018-02-09T00:21:01.991Z,130.90
2018-02-09T00:22:01.922Z,134.60
2018-02-09T00:23:01.853Z,133.00
2018-02-09T00:24:01.784Z,128.20
2018-02-09T00:25:01.714Z,133.90
2018-02-09T00:26:01.645Z,133.50
2018-02-09T00:27:01.576Z,133.80
2018-02-09T00:28:01.507Z,129.00
2018-02-09T00:29:01.437Z,137.90
2018-02-09T00:30:01.368Z,139.20
2018-02-09T00:31:01.299Z,141.50
2018-02-09T00:32:01.231Z,135.30
2018-02-09T00:33:01.160Z,144.50
2018-02-09T00:34:01.093Z,135.70
2018-02-09T00:35:01.023Z,141.80
2018-02-09T00:36:00.953Z,139.00
2018-02-09T00:37:00.883Z,145.30
2018-02-09T00:38:00.820Z,140.10
2018-02-09T00:39:00.746Z,138.70
2018-02-09T00:40:00.677Z,140.70
2018-02-09T00:41:00.606Z,136.50
2018-02-09T00:42:00.539Z,138.70
2018-02-09T00:43:00.468Z,142.70
2018-02-09T00:44:00.399Z,140.50
2018-02-09T00:45:00.329Z,142.60
2018-02-09T00:46:00.261Z,141.10
2018-02-09T00:47:00.192Z,138.80
2018-02-09T00:48:00.126Z,140.70
2018-02-09T00:49:00.054Z,139.90
2018-02-09T00:49:59.984Z,151.40
2018-02-09T00:50:59.965Z,143.80
2018-02-09T00:51:59.845Z,149.10
2018-02-09T00:52:59.778Z,143.50
2018-02-09T00:53:59.707Z,146.10
2018-02-09T00:54:59.638Z,139.30
2018-02-09T00:55:59.568Z,140.70
2018-02-09T00:56:59.500Z,127.70
2018-02-09T00:57:59.431Z,125.60
2018-02-09T00:58:59.364Z,126.10
2018-02-09T00:59:59.293Z,137.30
2018-02-09T01:00:59.223Z,135.90
2018-02-09T01:01:59.154Z,136.60
2018-02-09T01:02:59.086Z,139.10
2018-02-09T01:03:59.018Z,142.70
2018-02-09T01:04:58.946Z,138.40
2018-02-09T01:05:58.879Z,146.70
2018-02-09T01:06:58.809Z,147.00
2018-02-09T01:07:58.740Z,147.70
2018-02-09T01:08:58.671Z,144.20
2018-02-09T01:09:58.603Z,138.30
2018-02-09T01:10:58.532Z,138.30
2018-02-09T01:11:58.464Z,138.40
2018-02-09T01:12:58.393Z,134.50
2018-02-09T01:13:58.327Z,134.10
2018-02-09T01:14:58.256Z,143.30
2018-02-09T01:15:58.187Z,139.10
2018-02-09T01:16:58.117Z,136.40
2018-02-09T01:17:58.048Z,129.00
2018-02-09T01:18:57.979Z,132.90
2018-02-09T01:19:57.923Z,133.80
2018-02-09T01:20:57.842Z,128.30
2018-02-09T01:21:57.772Z,137.10
2018-02-09T01:22:57.703Z,139.00
2018-02-09T01:23:57.636Z,139.80
2018-02-09T01:24:57.564Z,139.10
2018-02-09T01:25:57.495Z,137.70
2018-02-09T01:26:57.427Z,130.50
2018-02-09T01:27:57.358Z,139.80
2018-02-09T01:28:57.290Z,146.10
2018-02-09T01:29:57.219Z,136.80
2018-02-09T01:30:57.150Z,132.00
2018-02-09T01:31:57.081Z,133.50
2018-02-09T01:32:57.011Z,131.70
2018-02-09T01:33:56.942Z,140.10
2018-02-09T01:34:56.876Z,129.40
2018-02-09T01:35:56.805Z,133.40
2018-02-09T01:36:56.736Z,135.70
2018-02-09T01:37:56.666Z,127.80
2018-02-09T01:38:56.598Z,129.80
2018-02-09T01:39:56.529Z,138.40
2018-02-09T01:40:56.459Z,134.70
2018-02-09T01:41:56.390Z,136.20
2018-02-09T01:42:56.322Z,140.30
2018-02-09T01:43:56.252Z,135.90
2018-02-09T01:44:56.183Z,125.00
2018-02-09T01:45:56.114Z,127.70
2018-02-09T01:46:56.045Z,129.10
2018-02-09T01:47:55.976Z,142.70
2018-02-09T01:48:55.906Z,144.50
2018-02-09T01:49:55.837Z,142.80
2018-02-09T01:50:55.768Z,145.00
2018-02-09T01:51:55.701Z,142.10
2018-02-09T01:52:55.632Z,141.00
2018-02-09T01:53:55.561Z,142.90
2018-02-09T01:54:55.493Z,146.80
2018-02-09T01:55:55.424Z,149.40
2018-02-09T01:56:55.354Z,143.70
2018-02-09T01:57:55.284Z,147.60
2018-02-09T01:58:55.217Z,151.60
2018-02-09T01:59:55.147Z,147.20
2018-02-09T02:00:55.077Z,153.80
2018-02-09T02:01:55.008Z,149.90
2018-02-09T02:02:54.941Z,146.20
2018-02-09T02:03:54.870Z,142.90
2018-02-09T02:04:54.803Z,135.80
2018-02-09T02:05:54.733Z,147.90
2018-02-09T02:06:54.662Z,143.50
2018-02-09T02:07:54.594Z,141.40
2018-02-09T02:08:54.527Z,144.20
2018-02-09T02:09:54.456Z,149.00
2018-02-09T02:10:54.390Z,149.00
2018-02-09T02:11:54.318Z,155.90
2018-02-09T02:12:54.250Z,142.60
2018-02-09T02:13:54.180Z,140.20
2018-02-09T02:14:54.110Z,155.90
2018-02-09T02:15:54.042Z,145.60
2018-02-09T02:16:53.973Z,147.00
2018-02-09T02:17:53.902Z,148.20
2018-02-09T02:18:53.833Z,145.60
2018-02-09T02:19:53.766Z,148.90
2018-02-09T02:20:53.701Z,148.70
2018-02-09T02:21:53.626Z,146.00
2018-02-09T02:22:53.557Z,134.40
2018-02-09T02:23:53.490Z,142.40
2018-02-09T02:24:53.420Z,141.90
2018-02-09T02:25:53.350Z,139.20
2018-02-09T02:26:53.284Z,140.70
2018-02-09T02:27:53.213Z,138.00
2018-02-09T02:28:53.143Z,144.70
2018-02-09T02:29:53.074Z,139.90
2018-02-09T02:30:53.004Z,143.20
2018-02-09T02:31:52.937Z,141.00
2018-02-09T02:32:52.867Z,138.10
2018-02-09T02:33:52.799Z,137.70
2018-02-09T02:34:52.730Z,141.10
2018-02-09T02:35:52.660Z,148.50
2018-02-09T02:36:52.589Z,140.30
2018-02-09T02:37:52.523Z,144.90
2018-02-09T02:38:52.455Z,140.40
2018-02-09T02:39:52.384Z,138.50
2018-02-09T02:40:52.316Z,138.90
2018-02-09T02:41:52.247Z,138.10
2018-02-09T02:42:52.177Z,138.90
2018-02-09T02:43:52.108Z,139.80
2018-02-09T02:44:52.039Z,144.50
2018-02-09T02:45:51.969Z,143.20
2018-02-09T02:46:51.902Z,137.60
2018-02-09T02:47:51.837Z,144.40
2018-02-09T02:48:51.763Z,145.60
2018-02-09T02:49:51.693Z,137.20
2018-02-09T02:50:51.624Z,130.80
2018-02-09T02:51:51.556Z,133.30
2018-02-09T02:52:51.492Z,140.10
2018-02-09T02:53:51.418Z,144.10
2018-02-09T02:54:51.348Z,139.90
2018-02-09T02:55:51.281Z,140.00
2018-02-09T02:56:51.209Z,143.30
2018-02-09T02:57:51.140Z,142.30
2018-02-09T02:58:51.072Z,131.80
2018-02-09T02:59:51.004Z,135.40
2018-02-09T03:00:50.933Z,133.90
2018-02-09T03:01:50.863Z,133.10
2018-02-09T03:02:50.798Z,126.40
2018-02-09T03:03:50.726Z,132.90
2018-02-09T03:04:50.657Z,127.70
2018-02-09T03:05:50.589Z,129.30
2018-02-09T03:06:50.520Z,127.70
2018-02-09T03:07:50.450Z,124.40
2018-02-09T03:08:50.382Z,133.20
2018-02-09T03:09:50.313Z,129.40
2018-02-09T03:10:50.243Z,130.00
2018-02-09T03:11:50.174Z,128.10
2018-02-09T03:12:50.105Z,115.60
2018-02-09T03:13:50.037Z,122.80
2018-02-09T03:14:49.967Z,125.50
2018-02-09T03:15:49.898Z,125.40
2018-02-09T03:16:49.827Z,131.30
2018-02-09T03:17:49.761Z,127.70
2018-02-09T03:18:49.692Z,127.60
2018-02-09T03:19:49.623Z,128.80
2018-02-09T03:20:49.553Z,129.30
2018-02-09T03:21:49.486Z,128.00
2018-02-09T03:22:49.415Z,123.70
2018-02-09T03:23:49.346Z,123.50
2018-02-09T03:24:49.278Z,120.40
2018-02-09T03:25:49.207Z,119.70
2018-02-09T03:26:49.138Z,123.10
2018-02-09T03:27:49.071Z,125.40
2018-02-09T03:28:49.004Z,124.30
2018-02-09T03:29:48.932Z,124.20
2018-02-09T03:30:48.883Z,126.00
2018-02-09T03:31:48.794Z,120.90
2018-02-09T03:32:48.725Z,119.40
2018-02-09T03:33:48.655Z,123.80
2018-02-09T03:34:48.587Z,120.80
2018-02-09T03:35:48.517Z,122.40
2018-02-09T03:36:48.449Z,122.90
2018-02-09T03:37:48.380Z,121.50
2018-02-09T03:38:48.310Z,127.30
2018-02-09T03:39:48.242Z,130.30
2018-02-09T03:40:48.173Z,123.30
2018-02-09T03:41:48.103Z,116.00
2018-02-09T03:42:48.035Z,116.80
2018-02-09T03:43:47.966Z,116.50
2018-02-09T03:44:47.896Z,118.00
2018-02-09T03:45:47.827Z,119.80
2018-02-09T03:46:47.759Z,122.50
2018-02-09T03:47:47.689Z,121.70
2018-02-09T03:48:47.620Z,117.40
2018-02-09T03:49:47.551Z,116.70
2018-02-09T03:50:47.483Z,114.80
2018-02-09T03:51:47.414Z,120.20
2018-02-09T03:52:47.345Z,119.90
2018-02-09T03:53:47.276Z,117.50
2018-02-09T03:54:47.208Z,116.10
2018-02-09T03:55:47.140Z,119.50
2018-02-09T03:56:47.069Z,119.30
2018-02-09T03:57:47.052Z,118.80
2018-02-09T03:58:46.930Z,112.10
2018-02-09T03:59:46.862Z,119.20
2018-02-09T04:00:46.792Z,118.60
2018-02-09T04:01:46.727Z,125.10
2018-02-09T04:02:46.655Z,123.00
2018-02-09T04:03:46.586Z,118.50
2018-02-09T04:04:46.517Z,114.60
2018-02-09T04:05:46.447Z,119.10
2018-02-09T04:06:46.379Z,121.20
2018-02-09T04:07:46.310Z,121.70
2018-02-09T04:08:46.240Z,116.90
2018-02-09T04:09:46.171Z,122.60
2018-02-09T04:10:46.104Z,117.90
2018-02-09T04:11:46.040Z,117.40
2018-02-09T04:12:45.965Z,120.70
2018-02-09T04:13:45.896Z,121.10
2018-02-09T04:14:45.827Z,119.60
2018-02-09T04:15:45.759Z,118.20
2018-02-09T04:16:46.012Z,113.80
2018-02-09T04:17:45.620Z,108.90
2018-02-09T04:18:45.551Z,117.50
2018-02-09T04:19:45.481Z,116.50
2018-02-09T04:20:45.414Z,120.90
2018-02-09T04:21:45.345Z,119.80
2018-02-09T04:22:45.278Z,113.00
2018-02-09T04:23:45.206Z,120.80
2018-02-09T04:24:45.137Z,120.10
2018-02-09T04:25:45.068Z,119.80
2018-02-09T04:26:45.000Z,120.10
2018-02-09T04:27:44.931Z,119.40
2018-02-09T04:28:44.862Z,117.70
2018-02-09T04:29:44.793Z,122.80
2018-02-09T04:30:44.725Z,122.60
2018-02-09T04:31:44.656Z,114.00
2018-02-09T04:32:44.586Z,122.10
2018-02-09T04:33:44.518Z,119.40
2018-02-09T04:34:44.447Z,113.90
2018-02-09T04:35:44.379Z,119.10
2018-02-09T04:36:44.310Z,124.50
2018-02-09T04:37:44.273Z,116.70
2018-02-09T04:38:44.173Z,114.80
2018-02-09T04:39:44.104Z,115.60
2018-02-09T04:40:44.034Z,111.40
2018-02-09T04:41:43.965Z,119.70
2018-02-09T04:42:43.898Z,113.80
2018-02-09T04:43:43.828Z,114.40
2018-02-09T04:44:43.760Z,112.20
2018-02-09T04:45:43.695Z,113.70
2018-02-09T04:46:43.622Z,120.70
2018-02-09T04:47:43.552Z,110.90
2018-02-09T04:48:43.483Z,114.50
2018-02-09T04:49:43.429Z,113.30
2018-02-09T04:50:43.345Z,110.60
2018-02-09T04:51:43.278Z,115.40
2018-02-09T04:52:43.207Z,118.50
2018-02-09T04:53:43.138Z,118.00
2018-02-09T04:54:43.071Z,113.80
2018-02-09T04:55:43.002Z,112.60
2018-02-09T04:56:42.935Z,116.50
2018-02-09T04:57:42.864Z,116.20
2018-02-09T04:58:42.794Z,121.30
2018-02-09T04:59:42.724Z,118.40
2018-02-09T05:00:42.657Z,116.70
2018-02-09T05:01:42.588Z,114.60
2018-02-09T05:02:42.519Z,112.00
2018-02-09T05:03:42.451Z,112.40
2018-02-09T05:04:42.382Z,109.00
2018-02-09T05:05:42.312Z,113.50
2018-02-09T05:06:42.245Z,111.50
2018-02-09T05:07:42.378Z,113.10
2018-02-09T05:08:42.105Z,115.70
2018-02-09T05:09:42.042Z,110.60
2018-02-09T05:10:41.969Z,109.00
2018-02-09T05:11:41.899Z,107.40
2018-02-09T05:12:41.831Z,111.70
2018-02-09T05:13:41.761Z,112.60
2018-02-09T05:14:41.693Z,112.60
2018-02-09T05:15:41.625Z,114.10
2018-02-09T05:16:41.557Z,113.90
2018-02-09T05:17:41.486Z,111.60
2018-02-09T05:18:41.418Z,114.40
2018-02-09T05:19:41.350Z,111.90
2018-02-09T05:20:41.279Z,108.80
2018-02-09T05:21:41.213Z,115.10
2018-02-09T05:22:41.142Z,112.10
2018-02-09T05:23:41.136Z,109.60
2018-02-09T05:24:41.004Z,109.30
2018-02-09T05:25:40.935Z,114.20
2018-02-09T05:27:40.800Z,113.20
2018-02-09T05:28:40.728Z,107.00
2018-02-09T05:29:40.660Z,110.20
2018-02-09T05:30:40.616Z,109.10
2018-02-09T05:31:40.523Z,102.60
2018-02-09T05:32:40.453Z,109.00
2018-02-09T05:33:40.385Z,110.50
2018-02-09T05:34:40.315Z,108.80
2018-02-09T05:35:40.247Z,112.00
2018-02-09T05:36:40.178Z,115.50
2018-02-09T05:37:40.111Z,114.20
2018-02-09T05:38:40.040Z,115.50
2018-02-09T05:39:39.972Z,112.70
2018-02-09T05:40:39.904Z,112.20
2018-02-09T05:41:39.834Z,114.60
2018-02-09T05:42:39.767Z,101.70
2018-02-09T05:43:39.696Z,106.90
2018-02-09T05:44:39.627Z,111.50
2018-02-09T05:45:39.559Z,110.10
2018-02-09T05:46:39.490Z,115.30
2018-02-09T05:47:39.421Z,114.80
2018-02-09T05:48:39.352Z,120.40
2018-02-09T05:49:39.319Z,112.70
2018-02-09T05:50:39.216Z,113.00
2018-02-09T05:51:39.146Z,116.20
2018-02-09T05:52:39.076Z,112.70
2018-02-09T05:53:39.008Z,110.70
2018-02-09T05:54:38.938Z,113.60
2018-02-09T05:55:38.875Z,113.60
2018-02-09T05:56:38.802Z,112.90
2018-02-09T05:57:38.734Z,119.10
2018-02-09T05:58:38.664Z,117.30
2018-02-09T05:59:38.600Z,116.10
2018-02-09T06:00:38.526Z,116.10
2018-02-09T06:01:38.456Z,116.30
2018-02-09T06:02:38.390Z,118.10
2018-02-09T06:03:38.321Z,116.20
2018-02-09T06:04:38.250Z,114.20
2018-02-09T06:05:38.183Z,117.00
2018-02-09T06:06:38.114Z,119.00
2018-02-09T06:07:38.045Z,117.60
2018-02-09T06:08:37.976Z,113.80
2018-02-09T06:09:37.910Z,116.80
2018-02-09T06:10:37.838Z,119.70
2018-02-09T06:11:37.772Z,115.20
2018-02-09T06:12:37.701Z,110.80
2018-02-09T06:13:37.638Z,114.90
2018-02-09T06:14:37.564Z,110.80
2018-02-09T06:15:37.495Z,118.10
2018-02-09T06:16:37.426Z,116.80
2018-02-09T06:17:37.358Z,119.50
2018-02-09T06:18:37.289Z,118.40
2018-02-09T06:19:37.220Z,110.80
2018-02-09T06:20:37.150Z,111.40
2018-02-09T06:21:37.082Z,117.90
2018-02-09T06:22:37.016Z,112.00
2018-02-09T06:23:36.945Z,117.90
2018-02-09T06:24:36.876Z,114.60
2018-02-09T06:25:36.809Z,111.00
2018-02-09T06:26:36.739Z,112.80
2018-02-09T06:27:36.669Z,122.40
2018-02-09T06:28:36.603Z,117.60
2018-02-09T06:29:36.533Z,122.00
2018-02-09T06:30:36.463Z,120.00
2018-02-09T06:31:36.396Z,117.60
2018-02-09T06:32:36.325Z,114.00
2018-02-09T06:33:36.257Z,116.80
2018-02-09T06:34:36.188Z,118.30
2018-02-09T06:35:36.119Z,114.80
2018-02-09T06:36:36.053Z,115.40
2018-02-09T06:37:35.982Z,118.90
2018-02-09T06:38:35.913Z,121.20
2018-02-09T06:39:35.844Z,119.60
2018-02-09T06:40:35.774Z,118.50
2018-02-09T06:41:35.706Z,117.70
2018-02-09T06:42:35.638Z,120.70
2018-02-09T06:43:35.569Z,119.40
2018-02-09T06:44:35.499Z,122.20
2018-02-09T06:45:35.429Z,121.80
2018-02-09T06:46:35.362Z,116.50
2018-02-09T06:47:35.294Z,121.60
2018-02-09T06:49:35.155Z,119.70
2018-02-09T06:50:35.088Z,121.80
2018-02-09T06:51:35.018Z,128.90
2018-02-09T06:52:34.949Z,124.80
2018-02-09T06:53:34.880Z,121.10
2018-02-09T06:54:34.812Z,122.70
2018-02-09T06:55:34.743Z,120.40
2018-02-09T06:56:34.674Z,120.50
2018-02-09T06:57:34.605Z,120.70
2018-02-09T06:58:34.537Z,120.40
2018-02-09T06:59:34.479Z,117.70
2018-02-09T07:00:34.398Z,123.20
2018-02-09T07:01:34.381Z,119.80
2018-02-09T07:02:34.261Z,123.10
2018-02-09T07:03:34.193Z,128.40
2018-02-09T07:04:34.123Z,123.00
2018-02-09T07:05:34.055Z,122.10
2018-02-09T07:06:33.986Z,121.60
2018-02-09T07:07:33.918Z,121.60
2018-02-09T07:08:33.849Z,121.90
2018-02-09T07:09:33.779Z,122.30
2018-02-09T07:10:33.981Z,115.50
2018-02-09T07:11:33.642Z,121.00
2018-02-09T07:12:33.575Z,124.10
2018-02-09T07:13:33.506Z,123.10
2018-02-09T07:14:33.436Z,122.40
2018-02-09T07:15:33.370Z,119.60
2018-02-09T07:16:33.299Z,121.30
2018-02-09T07:17:33.229Z,121.40
2018-02-09T07:18:33.161Z,124.90
2018-02-09T07:19:33.093Z,117.80
2018-02-09T07:20:33.067Z,123.80
2018-02-09T07:21:32.954Z,120.90
2018-02-09T07:22:32.886Z,125.20
2018-02-09T07:23:32.817Z,122.30
2018-02-09T07:24:32.751Z,126.00
2018-02-09T07:25:32.680Z,125.90
2018-02-09T07:26:32.611Z,123.30
2018-02-09T07:27:32.545Z,116.60
2018-02-09T07:28:32.480Z,125.80
2018-02-09T07:29:32.406Z,122.50
2018-02-09T07:30:32.337Z,121.70
2018-02-09T07:31:32.269Z,123.30
2018-02-09T07:32:32.198Z,124.70
2018-02-09T07:33:32.130Z,122.40
2018-02-09T07:34:32.063Z,122.20
2018-02-09T07:35:31.993Z,122.40
2018-02-09T07:36:31.925Z,119.60
2018-02-09T07:37:31.854Z,128.70
2018-02-09T07:38:31.787Z,122.20
2018-02-09T07:39:31.719Z,120.50
2018-02-09T07:40:31.649Z,123.60
2018-02-09T07:41:31.582Z,124.70
2018-02-09T07:42:31.513Z,125.90
2018-02-09T07:43:31.444Z,122.60
2018-02-09T07:44:31.376Z,121.80
2018-02-09T07:45:31.307Z,120.30
2018-02-09T07:46:31.238Z,122.50
2018-02-09T07:47:31.172Z,121.80
2018-02-09T07:48:31.101Z,121.10
2018-02-09T07:49:31.033Z,126.20
2018-02-09T07:50:30.975Z,124.10
2018-02-09T07:51:30.896Z,123.40
2018-02-09T07:52:30.826Z,121.50
2018-02-09T07:53:30.759Z,119.80
2018-02-09T07:54:30.689Z,122.60
2018-02-09T07:55:30.621Z,124.20
2018-02-09T07:56:30.554Z,127.90
2018-02-09T07:57:30.507Z,120.70
2018-02-09T07:58:30.417Z,130.00
2018-02-09T07:59:30.349Z,127.00
2018-02-09T08:00:30.277Z,125.00
2018-02-09T08:01:30.281Z,125.60
2018-02-09T08:02:30.142Z,125.90
2018-02-09T08:03:30.073Z,123.00
2018-02-09T08:04:30.006Z,120.10
2018-02-09T08:05:29.936Z,123.80
2018-02-09T08:06:29.868Z,119.20
2018-02-09T08:07:29.800Z,121.30
2018-02-09T08:08:29.730Z,125.30
2018-02-09T08:09:29.662Z,128.40
2018-02-09T08:10:29.593Z,128.70
2018-02-09T08:11:29.525Z,135.80
2018-02-09T08:12:29.465Z,126.70
2018-02-09T08:13:29.388Z,125.70
2018-02-09T08:14:29.319Z,118.70
2018-02-09T08:15:29.253Z,121.20
2018-02-09T08:16:29.182Z,128.10
2018-02-09T08:17:29.114Z,122.60
2018-02-09T08:18:29.047Z,118.80
2018-02-09T08:19:28.978Z,121.50
2018-02-09T08:20:28.908Z,123.50
2018-02-09T08:21:28.840Z,127.30
2018-02-09T08:22:28.772Z,124.00
2018-02-09T08:23:28.704Z,129.00
2018-02-09T08:24:28.634Z,127.40
2018-02-09T08:25:28.567Z,127.80
2018-02-09T08:26:28.498Z,121.10
2018-02-09T08:27:28.431Z,127.00
2018-02-09T08:28:28.361Z,128.10
2018-02-09T08:29:28.295Z,127.70
2018-02-09T08:30:28.226Z,123.70
2018-02-09T08:31:28.158Z,122.30
2018-02-09T08:32:28.087Z,121.10
2018-02-09T08:33:28.021Z,128.60
2018-02-09T08:34:27.953Z,128.90
2018-02-09T08:35:28.207Z,129.70
2018-02-09T08:36:27.814Z,130.10
2018-02-09T08:37:27.747Z,126.60
2018-02-09T08:38:27.679Z,127.10
2018-02-09T08:39:27.612Z,129.20
2018-02-09T08:40:27.542Z,129.60
2018-02-09T08:41:27.474Z,122.50
2018-02-09T08:42:27.406Z,125.30
2018-02-09T08:43:27.337Z,124.60
2018-02-09T08:44:27.269Z,126.70
2018-02-09T08:45:27.200Z,122.90
2018-02-09T08:46:27.134Z,128.70
2018-02-09T08:47:27.064Z,126.80
2018-02-09T08:48:26.996Z,122.50
2018-02-09T08:49:26.927Z,122.40
2018-02-09T08:50:26.863Z,130.90
2018-02-09T08:51:26.791Z,126.20
2018-02-09T08:52:26.723Z,123.00
2018-02-09T08:53:26.655Z,121.00
2018-02-09T08:54:26.588Z,122.90
2018-02-09T08:55:26.518Z,120.20
2018-02-09T08:56:26.450Z,124.60
2018-02-09T08:57:26.383Z,125.20
2018-02-09T08:58:26.314Z,124.00
2018-02-09T08:59:26.294Z,126.90
2018-02-09T09:00:26.177Z,122.20
2018-02-09T09:01:26.108Z,117.70
2018-02-09T09:02:26.041Z,121.00
2018-02-09T09:03:25.973Z,123.60
2018-02-09T09:04:25.904Z,121.60
2018-02-09T09:05:25.836Z,129.60
2018-02-09T09:06:25.773Z,121.80
2018-02-09T09:07:25.702Z,119.90
2018-02-09T09:08:25.637Z,115.20
2018-02-09T09:09:25.570Z,123.40
2018-02-09T09:10:25.496Z,113.80
2018-02-09T09:11:25.429Z,119.30
2018-02-09T09:12:25.359Z,114.60
2018-02-09T09:13:25.293Z,122.90
2018-02-09T09:14:25.226Z,120.40
2018-02-09T09:15:25.160Z,122.90
2018-02-09T09:16:25.088Z,120.80
2018-02-09T09:17:25.021Z,121.30
2018-02-09T09:18:24.951Z,120.80
2018-02-09T09:19:24.890Z,122.70
2018-02-09T09:20:24.815Z,116.70
2018-02-09T09:21:24.748Z,117.60
2018-02-09T09:22:24.679Z,118.60
2018-02-09T09:23:24.611Z,117.10
2018-02-09T09:24:24.543Z,120.50
2018-02-09T09:25:24.475Z,118.10
2018-02-09T09:26:24.406Z,114.60
2018-02-09T09:27:24.340Z,118.80
2018-02-09T09:28:24.272Z,115.00
2018-02-09T09:29:24.204Z,113.90
2018-02-09T09:30:24.136Z,117.10
2018-02-09T09:31:24.068Z,121.00
2018-02-09T09:32:24.005Z,116.10
2018-02-09T09:33:23.933Z,112.00
2018-02-09T09:34:23.865Z,113.80
2018-02-09T09:35:23.798Z,115.50
2018-02-09T09:36:23.729Z,110.30
2018-02-09T09:37:23.662Z,113.10
2018-02-09T09:38:23.594Z,111.30
2018-02-09T09:39:23.529Z,111.80
2018-02-09T09:40:23.458Z,109.80
2018-02-09T09:41:23.391Z,109.40
2018-02-09T09:42:23.324Z,113.00
2018-02-09T09:43:23.255Z,117.10
2018-02-09T09:44:23.187Z,116.90
2018-02-09T09:45:23.121Z,110.30
2018-02-09T09:46:23.052Z,109.70
2018-02-09T09:47:22.986Z,108.40
2018-02-09T09:48:22.918Z,110.90
2018-02-09T09:49:22.850Z,114.40
2018-02-09T09:50:22.795Z,113.60
2018-02-09T09:51:22.715Z,114.20
2018-02-09T09:52:22.646Z,111.50
2018-02-09T09:53:22.607Z,110.90
2018-02-09T09:54:22.511Z,107.50
2018-02-09T09:55:22.444Z,110.70
2018-02-09T09:56:22.376Z,114.20
2018-02-09T09:57:22.309Z,113.10
2018-02-09T09:58:22.241Z,107.60
2018-02-09T09:59:22.175Z,107.70
2018-02-09T10:00:22.106Z,110.10
2018-02-09T10:01:22.044Z,108.20
2018-02-09T10:02:21.971Z,111.40
2018-02-09T10:03:21.906Z,114.00
2018-02-09T10:04:21.838Z,108.70
2018-02-09T10:05:21.769Z,108.60
2018-02-09T10:06:21.705Z,114.70
2018-02-09T10:07:21.635Z,113.50
2018-02-09T10:08:21.568Z,106.40
2018-02-09T10:09:21.501Z,108.80
2018-02-09T10:10:21.434Z,106.40
2018-02-09T10:11:21.372Z,108.60
2018-02-09T10:12:21.298Z,108.40
2018-02-09T10:13:21.231Z,111.90
2018-02-09T10:14:21.170Z,100.10
2018-02-09T10:15:21.097Z,103.30
2018-02-09T10:16:21.030Z,107.30
2018-02-09T10:17:20.962Z,109.90
2018-02-09T10:18:20.896Z,104.10
2018-02-09T10:19:20.830Z,101.10
2018-02-09T10:20:20.763Z,106.00
2018-02-09T10:21:20.694Z,99.10
2018-02-09T10:22:20.629Z,105.00
2018-02-09T10:23:20.561Z,98.30
2018-02-09T10:24:20.493Z,104.80
2018-02-09T10:25:20.426Z,104.20
2018-02-09T10:26:20.359Z,94.20
2018-02-09T10:27:20.293Z,96.70
2018-02-09T10:28:20.230Z,98.60
2018-02-09T10:29:20.159Z,100.00
2018-02-09T10:30:20.090Z,100.20
2018-02-09T10:31:20.051Z,96.40
2018-02-09T10:32:19.956Z,95.30
2018-02-09T10:33:19.889Z,88.20
2018-02-09T10:34:19.823Z,94.90
2018-02-09T10:35:19.756Z,99.90
2018-02-09T10:36:19.689Z,99.10
2018-02-09T10:37:19.621Z,100.50
2018-02-09T10:38:19.555Z,99.20
2018-02-09T10:39:19.487Z,101.30
2018-02-09T10:40:19.421Z,98.20
2018-02-09T10:41:19.354Z,95.70
2018-02-09T10:42:19.286Z,92.40
2018-02-09T10:43:19.223Z,97.30
2018-02-09T10:44:19.152Z,94.20
2018-02-09T10:45:19.085Z,94.80
2018-02-09T10:46:19.020Z,96.20
2018-02-09T10:47:18.952Z,102.10
2018-02-09T10:48:18.885Z,98.20
2018-02-09T10:49:18.820Z,98.20
2018-02-09T10:50:18.751Z,96.00
2018-02-09T10:51:18.685Z,93.70
2018-02-09T10:52:18.642Z,99.80
2018-02-09T10:53:18.551Z,92.60
2018-02-09T10:54:18.485Z,95.30
2018-02-09T10:55:18.418Z,97.20
2018-02-09T10:56:18.348Z,97.50
2018-02-09T10:57:18.283Z,96.70
2018-02-09T10:58:18.216Z,97.90
2018-02-09T10:59:18.150Z,100.40
2018-02-09T11:00:18.082Z,102.30
2018-02-09T11:01:18.017Z,97.90
2018-02-09T11:02:17.950Z,97.20
2018-02-09T11:03:18.084Z,98.70
2018-02-09T11:04:17.815Z,95.40
2018-02-09T11:05:17.748Z,97.60
2018-02-09T11:06:17.682Z,96.00
2018-02-09T11:07:17.616Z,101.70
2018-02-09T11:08:17.549Z,100.10
2018-02-09T11:09:17.482Z,98.40
2018-02-09T11:10:17.416Z,96.40
2018-02-09T11:11:17.389Z,95.90
2018-02-09T11:12:17.281Z,99.40
2018-02-09T11:13:17.215Z,98.70
2018-02-09T11:14:17.148Z,97.40
2018-02-09T11:15:17.082Z,98.90
2018-02-09T11:16:17.015Z,98.00
2018-02-09T11:17:16.975Z,98.00
2018-02-09T11:18:16.882Z,96.80
2018-02-09T11:19:16.822Z,92.10
2018-02-09T11:20:16.796Z,95.50
2018-02-09T11:21:16.682Z,93.90
2018-02-09T11:22:16.615Z,89.70
2018-02-09T11:23:16.548Z,96.80
2018-02-09T11:24:16.482Z,89.40
2018-02-09T11:25:16.415Z,91.30
2018-02-09T11:26:16.377Z,96.80
2018-02-09T11:27:16.282Z,93.50
2018-02-09T11:28:16.215Z,93.80
2018-02-09T11:29:16.148Z,99.20
2018-02-09T11:30:16.084Z,98.80
2018-02-09T11:31:16.015Z,91.50
2018-02-09T11:32:15.948Z,91.50
2018-02-09T11:33:15.883Z,92.50
2018-02-09T11:34:15.816Z,94.70
2018-02-09T11:35:15.749Z,89.90
2018-02-09T11:36:15.681Z,92.10
2018-02-09T11:37:15.616Z,85.80
2018-02-09T11:38:15.574Z,92.60
2018-02-09T11:39:15.482Z,92.60
2018-02-09T11:40:15.416Z,84.60
2018-02-09T11:41:15.365Z,91.40
2018-02-09T11:42:15.284Z,87.40
2018-02-09T11:43:15.218Z,89.20
2018-02-09T11:44:15.150Z,84.80
2018-02-09T11:45:15.084Z,89.50
2018-02-09T11:46:15.038Z,85.10
2018-02-09T11:47:14.952Z,86.10
2018-02-09T11:48:14.884Z,86.90
2018-02-09T11:49:14.820Z,85.80
2018-02-09T11:50:14.752Z,86.20
2018-02-09T11:51:14.690Z,81.70
2018-02-09T11:52:14.619Z,81.80
2018-02-09T11:53:14.557Z,80.80
2018-02-09T11:54:14.489Z,84.40
2018-02-09T11:55:14.422Z,88.40
2018-02-09T11:56:14.355Z,78.70
2018-02-09T11:57:14.289Z,83.40
2018-02-09T11:58:14.222Z,81.70
2018-02-09T11:59:14.156Z,80.80
2018-02-09T12:00:14.088Z,81.40
2018-02-09T12:01:14.022Z,80.10
2018-02-09T12:02:13.956Z,81.10
2018-02-09T12:03:13.890Z,81.10
2018-02-09T12:04:13.823Z,82.90
2018-02-09T12:05:13.757Z,80.40
2018-02-09T12:06:13.691Z,78.20
2018-02-09T12:07:13.627Z,84.20
2018-02-09T12:08:13.559Z,79.70
2018-02-09T12:09:13.493Z,81.80
2018-02-09T12:10:13.427Z,80.80
2018-02-09T12:11:13.360Z,72.00
2018-02-09T12:12:13.293Z,77.10
2018-02-09T12:13:13.228Z,82.40
2018-02-09T12:14:13.161Z,81.30
2018-02-09T12:15:13.096Z,79.60
2018-02-09T12:16:13.028Z,79.30
2018-02-09T12:17:12.962Z,78.60
2018-02-09T12:18:12.898Z,85.40
2018-02-09T12:19:12.830Z,81.70
2018-02-09T12:20:12.766Z,81.80
2018-02-09T12:21:12.698Z,82.50
2018-02-09T12:22:12.632Z,76.50
2018-02-09T12:23:12.583Z,84.90
2018-02-09T12:24:12.498Z,81.50
2018-02-09T12:25:12.436Z,72.80
2018-02-09T12:26:12.368Z,79.50
2018-02-09T12:27:12.304Z,82.50
2018-02-09T12:28:12.233Z,80.10
2018-02-09T12:29:12.168Z,79.50
2018-02-09T12:30:12.100Z,82.60
2018-02-09T12:31:12.035Z,81.70
2018-02-09T12:32:11.968Z,80.00
2018-02-09T12:33:11.903Z,78.70